Pittsfield, PA (16340)

2:48 PM EDT on September 03, 2015 (GMT -0400)
Cheery Hill / kortwright Rd. | | Change Station
CLOSE
Current Station
Personal Weather Station
Location: Ashville, NY
Elevation: 1594 ft
Nearby Weather Stations

Elev 1594 ft 42.01 °N, 79.40 °W | Updated 35 seconds ago

Mostly Cloudy
Mostly Cloudy
82.9 °F
Feels Like 86 °F
N
4.0
Wind Variable Wind from WNW
Gusts 4.9 mph

Today
High -- | Low -- °F
--% Chance of Precip.
Yesterday
High -- | Low -- °F
Precip. -- in
6:45 AM 7:48 PM
Waning Gibbous, 68% visible
Pressure 29.99 in
Visibility 10.0 miles
Clouds Clear
Heat Index 86 °F
Dew Point 68 °F
Humidity 60%
Rainfall 0.00 in
Snow Depth Not available.
UV 5.0 out of 12
Pollen 10.30 out of 12
Air Quality Not available.
Flu Activity Not available.
METAR KJHW 031835Z AUTO 35004KT 10SM CLR 27/19 A2999 RMK AO1
Pressure 29.99 in
Visibility 10.0 miles
Clouds Clear
Heat Index 86 °F
Dew Point 68 °F
Humidity 60%
Rainfall 0.00 in
Snow Depth Not available.
UV 5.0 out of 12
Pollen 10.30 out of 12
Air Quality Not available.
Flu Activity Not available.
METAR KJHW 031835Z AUTO 35004KT 10SM CLR 27/19 A2999 RMK AO1
Nowcast | as of 2:30 PM EDT on September 3, 2015

Isolated showers and thunderstorms will develop this afternoon and move slowly south across the region. Most areas will remain dry... but any spot that sees a shower or storm will see heavy downpours and brief gusty winds.

×

10-Day Weather Forecast

×

Almanac

Astronomy

Sep. 03, 2015 Rise Set
Actual Time
Civil Twilight
Nautical Twilight
Astronomical Twilight
Moon
Length of Visible Light
Length of Day
Tomorrow will be .
, % of the Moon is Illuminated

Today's Extremes

State Highs State Lows

Community

WunderPhotos

Upload Photos

1,852,001 photos uploaded!

WunderBlogs® & News

Nearby

Air Quality

  Air Quality AQ Index Pollutant
Not available.

Snow Depth

Station Depth Elevation

Earthquake Activity

City Distance Mag. Time & Date
Minimum magnitude displayed is 2.5.

Coastal Water Temperatures

Place Temperature

Stations

Nearby Weather Stations

Station Location Temp. Windchill Dew Point Humidity Wind Precip. Elev Updated Type